Offenbach, Germany

6:57 AM CEST on September 23, 2014 (GMT +0200)
Frankfurt INTERNET AG www.inet.de | Change Station
CLOSE
Current Station
Personal Weather Station
Location: Frankfurt, HESSEN
Elevation: 348 ft
Nearby Weather Stations

Elev 348 ft 50.11 °N, 8.67 °E | Updated 16 seconds ago

Patches of Fog
Patches Fog
48.0 °F
Feels Like 48 °F
N
1.6
Wind Variable Wind from SE
Gusts 1.6 mph

Today
High -- | Low -- °F
--% Chance of Precip.
Yesterday
High -- | Low -- °F
Precip. -- in
7:12 AM 7:21 PM
Waning Crescent, 1% visible
Pressure 30.18 in
Visibility 6.2 miles
Clouds Few 500 ft
Windchill 48 °F
Dew Point 46 °F
Humidity 93%
Rainfall 0.00 in
Snow Depth Not available.
UV 0 out of 12
Pollen Not available.
Air Quality Not available.
Flu Activity Not available.
METAR EDDF 230450Z 18003KT 9999 BCFG FEW005 06/06 Q1022 NOSIG

More Conditions Fewer Conditions

Pressure 30.18 in
Visibility 6.2 miles
Clouds Few 500 ft
Windchill 48 °F
Dew Point 46 °F
Humidity 93%
Rainfall 0.00 in
Snow Depth Not available.
UV 0 out of 12
Pollen Not available.
Air Quality Not available.
Flu Activity Not available.
METAR EDDF 230450Z 18003KT 9999 BCFG FEW005 06/06 Q1022 NOSIG

More Conditions Fewer Conditions

10-Day Weather Forecast

Almanac

Astronomy

Sep. 23, 2014 Rise Set
Actual Time 7:12 AM CEST 7:21 PM CEST
Civil Twilight 6:40 AM CEST 7:53 PM CEST
Nautical Twilight 6:02 AM CEST 8:31 PM CEST
Astronomical Twilight 5:22 AM CEST 9:11 PM CEST
Moon 6:19 AM CEST 6:51 PM CEST
Length of Visible Light 13h 13m
Length of Day
12h 08m
Tomorrow will be 3m 44s shorter.
Waning Crescent, 1% of the Moon is Illuminated
Today
Waning Crescent
Sep 24
New
Oct 1
First Quarter
Oct 8
Full
Oct 15
Last Quarter

Yesterday's Extremes

Country Highs Country Lows

Community

WunderPhotos

Upload Photos

1,755,611 photos uploaded!

Nearby

Snow Depth

Not available.

Earthquake Activity

City Distance Mag. Time & Date
No recent earthquake activity has been reported nearby.
Minimum magnitude displayed is 2.5.

Coastal Water Temperatures

Place Temperature
No Stations Reporting

Nearby Weather Stations